Time;durP1;ratioP1;P1;durP2;ratioP2;P2;SDS_P1;SDS_P2;PMS_P1;PMS_P2;Temp;Humidity;BMP_temperature;BMP_pressure;BME280_temperature;BME280_humidity;BME280_pressure;Samples;Min_cycle;Max_cycle;Signal;HPM_P1;HPM_P2
2022/09/14 00:02:08;;;;;;;3.90;1.23;;;;;;;22.38;47.82;100730.13;16127542;19;129444;-61
2022/09/14 00:07:30;;;;;;;2.85;0.90;;;;;;;22.38;47.65;100730.13;16127102;19;129276;-61
2022/09/14 00:12:52;;;;;;;2.90;1.10;;;;;;;22.37;47.58;100708.94;16128392;19;129918;-61
2022/09/14 00:18:13;;;;;;;2.60;0.63;;;;;;;22.37;47.84;100699.72;16129243;19;129808;-61
2022/09/14 00:23:36;;;;;;;3.95;1.10;;;;;;;22.35;47.60;100704.75;16127249;19;129132;-61
2022/09/14 00:29:03;;;;;;;4.28;1.00;;;;;;;22.34;47.67;100694.75;16131082;19;129916;-61
2022/09/14 00:34:26;;;;;;;4.80;0.90;;;;;;;22.34;47.40;100686.38;16125447;19;129425;-61
2022/09/14 00:39:48;;;;;;;5.18;0.80;;;;;;;22.32;47.24;100672.69;16128047;19;130123;-61
2022/09/14 00:45:20;;;;;;;3.20;0.90;;;;;;;22.34;47.40;100669.66;16128297;19;129389;-61
2022/09/14 00:50:42;;;;;;;1.77;0.60;;;;;;;22.32;47.37;100655.16;16128333;19;129317;-61
2022/09/14 00:56:05;;;;;;;2.70;1.13;;;;;;;22.32;47.67;100657.94;16126289;19;129263;-61
2022/09/14 01:01:27;;;;;;;2.47;0.68;;;;;;;22.32;47.28;100658.75;16125470;19;129172;-61
2022/09/14 01:07:09;;;;;;;2.70;0.88;;;;;;;22.32;46.96;100641.22;16123569;19;130000;-61
2022/09/14 01:12:34;;;;;;;1.45;0.60;;;;;;;22.30;47.27;100644.28;16124871;19;129452;-61
2022/09/14 01:18:15;;;;;;;1.73;0.77;;;;;;;22.28;46.95;100644.56;16125492;19;129518;-61
2022/09/14 01:24:05;;;;;;;2.97;0.70;;;;;;;22.30;47.16;100649.03;16126694;19;130777;-61
2022/09/14 01:29:58;;;;;;;3.03;0.60;;;;;;;22.28;47.10;100649.28;16126584;19;129830;-61
2022/09/14 01:35:30;;;;;;;1.77;0.70;;;;;;;22.28;47.06;100654.84;16121547;19;129741;-61
2022/09/14 01:40:53;;;;;;;1.88;0.77;;;;;;;22.26;47.24;100655.13;16127212;19;129961;-61
2022/09/14 01:46:24;;;;;;;2.55;0.70;;;;;;;22.27;46.81;100664.34;16122618;19;130202;-61
2022/09/14 01:51:50;;;;;;;1.05;0.50;;;;;;;22.25;47.17;100658.22;16125818;19;131035;-61
2022/09/14 01:57:18;;;;;;;2.17;0.60;;;;;;;22.25;47.12;100652.66;16123923;19;129742;-61
2022/09/14 02:02:45;;;;;;;1.40;0.55;;;;;;;22.25;46.97;100649.84;16122656;19;129729;-61
2022/09/14 02:08:07;;;;;;;1.92;0.65;;;;;;;22.24;46.77;100640.66;16121443;19;129742;-61
2022/09/14 02:13:29;;;;;;;2.85;0.70;;;;;;;22.24;46.87;100648.19;16120611;19;129356;-61
2022/09/14 02:18:51;;;;;;;2.05;0.70;;;;;;;22.22;46.58;100633.69;16133503;19;130002;-61
2022/09/14 02:24:14;;;;;;;3.30;0.90;;;;;;;22.22;46.98;100626.16;16135693;19;128952;-61
2022/09/14 02:29:36;;;;;;;2.40;0.70;;;;;;;22.22;47.16;100625.31;16135046;19;129999;-61
2022/09/14 02:35:21;;;;;;;3.78;1.10;;;;;;;22.22;47.03;100628.13;16136459;19;129736;-60
2022/09/14 02:41:13;;;;;;;3.95;0.65;;;;;;;22.21;46.87;100618.94;16133927;19;129431;-61
2022/09/14 02:46:43;;;;;;;3.33;0.80;;;;;;;22.20;46.94;100617.22;16135863;19;129368;-61
2022/09/14 02:52:46;;;;;;;2.75;0.75;;;;;;;22.20;46.99;100608.00;16136111;19;129854;-61
2022/09/14 02:58:09;;;;;;;1.98;0.70;;;;;;;22.18;46.74;100602.72;16133502;19;129474;-61
2022/09/14 03:03:31;;;;;;;2.03;0.75;;;;;;;22.17;46.63;100598.28;16134005;19;129358;-61
2022/09/14 03:08:56;;;;;;;3.27;0.80;;;;;;;22.17;46.93;100575.13;16135140;19;130089;-61
2022/09/14 03:14:17;;;;;;;2.15;0.75;;;;;;;22.17;46.89;100591.84;16134933;19;129638;-61
2022/09/14 03:19:40;;;;;;;4.07;0.85;;;;;;;22.16;46.64;100582.66;16137431;19;130553;-61
2022/09/14 03:25:01;;;;;;;2.25;0.90;;;;;;;22.16;46.53;100563.16;16135815;19;130280;-61
2022/09/14 03:30:23;;;;;;;2.97;1.10;;;;;;;22.16;46.60;100565.09;16132405;19;129078;-61
2022/09/14 03:35:45;;;;;;;4.68;0.90;;;;;;;22.15;46.38;100564.28;16134850;19;129197;-61
2022/09/14 03:41:08;;;;;;;3.40;1.00;;;;;;;22.15;46.83;100563.47;16131641;19;129391;-61
2022/09/14 03:46:30;;;;;;;2.50;0.60;;;;;;;22.15;46.64;100563.47;16133371;19;130061;-61
2022/09/14 03:51:52;;;;;;;5.15;0.80;;;;;;;22.13;46.44;100556.22;16134773;19;129776;-61
2022/09/14 03:57:19;;;;;;;2.42;0.70;;;;;;;22.12;46.32;100553.69;16132796;19;130706;-61
2022/09/14 04:02:41;;;;;;;3.78;1.02;;;;;;;22.12;46.39;100548.97;16132622;19;132071;-61
2022/09/14 04:08:03;;;;;;;2.70;1.00;;;;;;;22.12;46.44;100548.97;16131018;19;129543;-61
2022/09/14 04:13:25;;;;;;;4.72;1.30;;;;;;;22.11;46.56;100547.28;16127544;19;129096;-61
2022/09/14 04:18:47;;;;;;;2.72;1.17;;;;;;;22.10;46.26;100548.41;16129394;19;130395;-61
2022/09/14 04:24:12;;;;;;;2.05;0.88;;;;;;;22.09;46.06;100541.16;16127015;19;130173;-62
2022/09/14 04:29:36;;;;;;;3.03;0.90;;;;;;;22.09;46.06;100540.34;16157182;19;129778;-61
2022/09/14 04:34:58;;;;;;;2.28;0.93;;;;;;;22.09;46.55;100552.31;16210131;19;129155;-59
2022/09/14 04:40:20;;;;;;;2.53;0.80;;;;;;;22.08;45.96;100542.28;16210452;19;128682;-62
2022/09/14 04:45:42;;;;;;;2.63;0.85;;;;;;;22.09;46.37;100543.94;16210731;19;129296;-61
2022/09/14 04:51:18;;;;;;;3.65;0.90;;;;;;;22.10;45.97;100556.75;16210281;19;128749;-61
2022/09/14 04:56:40;;;;;;;3.28;0.80;;;;;;;22.08;46.19;100553.41;16210803;19;127923;-61
2022/09/14 05:02:02;;;;;;;2.55;0.80;;;;;;;22.08;46.54;100545.06;16210639;19;128923;-61
2022/09/14 05:07:24;;;;;;;3.35;0.93;;;;;;;22.07;46.21;100539.78;16210508;19;128527;-61
2022/09/14 05:12:46;;;;;;;1.95;0.77;;;;;;;22.07;46.18;100540.59;16211309;19;128484;-61
2022/09/14 05:18:07;;;;;;;3.40;0.95;;;;;;;22.05;46.18;100531.69;16207459;19;128123;-61
2022/09/14 05:23:29;;;;;;;3.90;0.90;;;;;;;22.06;46.28;100535.31;16209674;19;129251;-61
2022/09/14 05:28:54;;;;;;;3.15;0.98;;;;;;;22.05;46.25;100540.03;16206540;19;129546;-65
2022/09/14 05:34:16;;;;;;;7.68;1.48;;;;;;;22.04;46.00;100534.75;16189018;19;129232;-62
2022/09/14 05:39:37;;;;;;;7.88;1.10;;;;;;;22.04;46.55;100513.28;16160486;19;129566;-61
2022/09/14 05:44:59;;;;;;;6.40;0.90;;;;;;;22.05;46.43;100509.41;16125455;19;130834;-59
2022/09/14 05:50:22;;;;;;;4.32;1.25;;;;;;;22.06;46.53;100513.03;16126053;19;135077;-66
2022/09/14 05:55:43;;;;;;;5.82;1.00;;;;;;;22.06;46.61;100507.47;16141190;19;130648;-67
2022/09/14 06:01:13;;;;;;;3.72;0.93;;;;;;;22.09;46.76;100501.34;16138177;19;129913;-67
2022/09/14 06:06:35;;;;;;;6.40;0.82;;;;;;;22.07;46.47;100496.03;16139693;19;129921;-66
2022/09/14 06:11:56;;;;;;;9.65;1.30;;;;;;;22.07;46.42;100486.84;16139512;19;129970;-66
2022/09/14 06:17:18;;;;;;;4.13;0.95;;;;;;;22.04;46.29;100491.00;16138578;19;129544;-67
2022/09/14 06:22:40;;;;;;;3.70;1.00;;;;;;;22.04;46.74;100492.97;16139242;19;129049;-65
2022/09/14 06:28:02;;;;;;;5.80;1.05;;;;;;;22.04;46.33;100490.19;16136693;19;129183;-65
2022/09/14 06:33:24;;;;;;;3.10;0.95;;;;;;;22.03;46.28;100483.78;16136314;19;130328;-66
2022/09/14 06:38:48;;;;;;;2.83;1.05;;;;;;;22.02;46.55;100490.47;16138023;19;130364;-66
2022/09/14 06:44:10;;;;;;;5.47;1.00;;;;;;;22.00;46.41;100478.78;16137444;19;129229;-65
2022/09/14 06:49:32;;;;;;;4.43;1.10;;;;;;;22.00;46.57;100481.56;16138899;19;131004;-66
2022/09/14 06:54:53;;;;;;;4.70;1.20;;;;;;;22.00;46.53;100481.56;16138211;19;130737;-65
2022/09/14 07:00:15;;;;;;;5.38;1.00;;;;;;;22.00;46.73;100489.06;16135346;19;129377;-66
2022/09/14 07:05:37;;;;;;;4.03;1.00;;;;;;;22.00;46.63;100483.50;16136120;19;129894;-68
2022/09/14 07:10:59;;;;;;;5.07;1.08;;;;;;;21.98;46.30;100494.94;16138428;19;132493;-67
2022/09/14 07:16:21;;;;;;;3.53;1.10;;;;;;;21.98;46.45;100492.16;16137806;19;133439;-66
2022/09/14 07:21:43;;;;;;;4.18;0.75;;;;;;;21.97;46.32;100488.50;16140674;19;129430;-66
2022/09/14 07:27:04;;;;;;;2.47;0.75;;;;;;;21.99;46.26;100493.81;16138608;19;129922;-65
2022/09/14 07:32:26;;;;;;;1.77;0.90;;;;;;;21.98;46.29;100492.16;16136291;19;129414;-65
2022/09/14 07:37:48;;;;;;;4.93;1.00;;;;;;;21.97;46.12;100496.03;16135062;19;129576;-65
2022/09/14 07:43:10;;;;;;;2.53;0.90;;;;;;;21.97;46.33;100501.63;16136215;19;129454;-62
2022/09/14 07:48:33;;;;;;;1.98;0.93;;;;;;;21.96;46.32;100492.44;16136691;19;129371;-66
2022/09/14 07:53:55;;;;;;;6.30;0.80;;;;;;;21.96;46.54;100491.59;16134125;19;129411;-66
2022/09/14 07:59:17;;;;;;;3.83;1.42;;;;;;;21.96;46.28;100495.22;16131960;19;129712;-65
2022/09/14 08:04:57;;;;;;;3.45;1.17;;;;;;;21.95;46.31;100492.69;16134029;19;129425;-66
2022/09/14 08:10:19;;;;;;;3.00;0.90;;;;;;;21.94;46.31;100497.44;16134699;19;129511;-66
2022/09/14 08:15:40;;;;;;;3.60;1.17;;;;;;;21.94;46.49;100496.59;16134349;19;129260;-66
2022/09/14 08:21:04;;;;;;;4.10;1.33;;;;;;;21.93;46.42;100506.06;16132324;19;129298;-65
2022/09/14 08:26:26;;;;;;;2.65;0.80;;;;;;;21.94;46.05;100513.31;16131602;19;131357;-65
2022/09/14 08:31:50;;;;;;;2.80;1.08;;;;;;;21.94;46.27;100502.16;16130426;19;129170;-66
2022/09/14 08:37:12;;;;;;;1.98;0.90;;;;;;;21.92;46.00;100504.38;16125635;19;129214;-66
2022/09/14 08:42:37;;;;;;;4.80;1.00;;;;;;;21.92;45.99;100482.97;16132792;19;130022;-65
2022/09/14 08:47:59;;;;;;;3.67;0.80;;;;;;;21.91;46.23;100474.91;16130554;19;129029;-65
2022/09/14 08:53:21;;;;;;;2.63;0.85;;;;;;;21.91;46.01;100477.69;16129099;19;130477;-65
2022/09/14 08:58:55;;;;;;;2.83;0.90;;;;;;;21.91;46.36;100481.28;16126753;19;130311;-66
2022/09/14 09:04:26;;;;;;;3.78;1.20;;;;;;;21.92;46.28;100471.81;16124631;19;129558;-66
2022/09/14 09:09:51;;;;;;;1.60;0.82;;;;;;;21.93;46.02;100475.44;16126961;19;129499;-66
2022/09/14 09:15:23;;;;;;;3.20;1.10;;;;;;;21.93;46.23;100472.63;16129557;19;129309;-66
2022/09/14 09:20:50;;;;;;;2.42;1.20;;;;;;;21.91;46.35;100470.16;16128261;19;130096;-64
2022/09/14 09:26:26;;;;;;;2.40;1.08;;;;;;;21.91;46.24;100486.84;16126086;19;129588;-67
2022/09/14 09:31:50;;;;;;;;;;;;;;;21.87;46.50;100485.72;16127248;19;129394;-68
2022/09/14 09:37:17;;;;;;;3.05;1.17;;;;;;;21.89;46.54;100486.28;16127033;19;132964;-70
2022/09/14 09:43:02;;;;;;;5.20;1.27;;;;;;;21.91;46.39;100491.59;16122507;19;129403;-74
2022/09/14 09:48:32;;;;;;;3.55;1.60;;;;;;;21.88;46.51;100490.19;16125367;19;129718;-72
2022/09/14 09:54:01;;;;;;;3.08;1.25;;;;;;;21.87;46.43;100502.44;16124432;19;129442;-73
2022/09/14 09:59:36;;;;;;;4.55;1.45;;;;;;;21.88;46.45;100520.81;16122315;19;129636;-73
2022/09/14 10:04:58;;;;;;;2.70;1.00;;;;;;;21.86;46.57;100514.69;16123515;19;129517;-67
2022/09/14 10:10:25;;;;;;;4.22;1.30;;;;;;;21.86;46.32;100555.66;16125066;19;131103;-67
2022/09/14 10:15:48;;;;;;;2.90;1.42;;;;;;;21.86;46.25;100477.66;16123365;19;129603;-69
2022/09/14 10:21:12;;;;;;;10.05;3.25;;;;;;;21.87;46.50;100504.41;16124242;19;129432;-69
2022/09/14 10:26:36;;;;;;;14.82;3.50;;;;;;;21.87;46.79;100499.66;16124814;19;129876;-69
2022/09/14 10:32:11;;;;;;;13.25;3.80;;;;;;;21.87;46.53;100513.59;16124482;19;129544;-69
2022/09/14 10:37:39;;;;;;;11.77;3.10;;;;;;;21.85;46.44;100518.59;16126789;19;129201;-69
2022/09/14 10:43:07;;;;;;;6.70;2.72;;;;;;;21.84;46.77;100505.81;16134254;19;129942;-69
2022/09/14 10:48:35;;;;;;;6.28;2.50;;;;;;;21.84;46.74;100503.03;16134899;19;129775;-69
2022/09/14 10:54:19;;;;;;;12.70;3.40;;;;;;;21.88;46.79;100475.44;16137104;19;129420;-70
2022/09/14 10:59:58;;;;;;;9.27;2.90;;;;;;;21.86;46.61;100499.94;16131569;19;132602;-70
2022/09/14 11:05:22;;;;;;;9.25;2.60;;;;;;;21.84;46.76;100486.31;16134017;19;130033;-70
2022/09/14 11:11:10;;;;;;;11.30;2.70;;;;;;;21.82;46.26;100489.38;16138687;19;129262;-71
2022/09/14 11:16:54;;;;;;;9.30;2.75;;;;;;;21.81;46.68;100487.69;16132728;19;130210;-71
2022/09/14 11:22:40;;;;;;;11.60;2.05;;;;;;;21.78;46.33;100487.41;16133284;19;129315;-70
2022/09/14 11:28:13;;;;;;;9.35;1.90;;;;;;;21.74;46.29;100487.16;16135746;19;130039;-70
2022/09/14 11:33:47;;;;;;;7.20;1.50;;;;;;;21.72;46.18;100489.38;16136064;19;129921;-70
2022/09/14 11:39:19;;;;;;;9.10;1.75;;;;;;;21.72;46.10;100480.19;16134970;19;129337;-70
2022/09/14 11:44:45;;;;;;;4.05;1.48;;;;;;;21.71;46.12;100481.31;16134853;19;130858;-69
2022/09/14 11:50:16;;;;;;;5.63;1.27;;;;;;;21.72;46.29;100471.84;16135167;19;129630;-69
2022/09/14 11:55:44;;;;;;;10.30;1.48;;;;;;;21.73;46.15;100473.47;16133328;19;129132;-69
2022/09/14 12:01:32;;;;;;;10.25;1.50;;;;;;;21.73;46.12;100467.91;16133579;19;129479;-69
2022/09/14 12:06:54;;;;;;;6.70;1.50;;;;;;;21.71;45.78;100471.00;16132372;19;132035;-68
2022/09/14 12:12:28;;;;;;;6.13;1.27;;;;;;;21.73;46.06;100479.91;16131855;19;129941;-68
2022/09/14 12:17:52;;;;;;;11.57;1.67;;;;;;;21.73;45.76;100484.63;16132485;19;129512;-63
2022/09/14 12:23:31;;;;;;;9.48;1.55;;;;;;;21.72;46.25;100469.88;16130514;19;133660;-69
2022/09/14 12:28:56;;;;;;;10.45;1.50;;;;;;;21.74;45.95;100464.88;16129968;19;129718;-69
2022/09/14 12:34:23;;;;;;;4.10;1.07;;;;;;;21.74;46.12;100467.66;16130858;19;129339;-64
2022/09/14 12:40:19;;;;;;;4.22;1.20;;;;;;;21.78;45.96;100470.72;16128708;19;129487;-66
2022/09/14 12:46:00;;;;;;;9.90;1.15;;;;;;;21.78;45.93;100473.50;16130759;19;133724;-66
2022/09/14 12:51:31;;;;;;;8.35;1.60;;;;;;;21.76;45.95;100471.00;16127063;19;129874;-67
2022/09/14 12:57:47;;;;;;;10.48;1.55;;;;;;;21.76;45.92;100462.66;16129063;19;131115;-65
2022/09/14 13:03:45;;;;;;;12.95;5.63;;;;;;;21.79;45.87;100467.63;16122579;19;129615;-65
2022/09/14 13:09:17;;;;;;;52.65;24.40;;;;;;;21.78;46.02;100460.44;16129774;19;129090;-66
2022/09/14 13:14:54;;;;;;;50.85;25.08;;;;;;;21.81;45.84;100445.09;16127572;19;131134;-66
2022/09/14 13:20:17;;;;;;;49.38;24.63;;;;;;;21.81;45.85;100447.88;16126506;19;129834;-66
2022/09/14 13:25:39;;;;;;;75.50;39.90;;;;;;;21.86;45.95;100438.69;16128387;19;129583;-66
2022/09/14 13:31:01;;;;;;;89.18;46.45;;;;;;;21.88;46.16;100436.47;16125891;19;129541;-66
2022/09/14 13:36:27;;;;;;;94.93;52.50;;;;;;;21.91;46.07;100430.34;16123405;19;129719;-66
2022/09/14 13:41:49;;;;;;;102.60;59.80;;;;;;;21.93;46.51;100428.94;16124430;19;129295;-66
2022/09/14 13:47:18;;;;;;;97.63;54.00;;;;;;;21.95;45.84;100425.84;16124349;19;129259;-66
2022/09/14 13:52:41;;;;;;;80.40;44.58;;;;;;;21.95;46.20;100420.28;16125938;19;129416;-66
2022/09/14 13:58:22;;;;;;;89.35;48.88;;;;;;;21.95;46.13;100420.28;16121572;19;129892;-67
2022/09/14 14:03:48;;;;;;;77.80;44.80;;;;;;;21.95;46.35;100410.00;16124035;19;129558;-67
2022/09/14 14:09:10;;;;;;;75.43;39.35;;;;;;;21.95;46.08;100404.44;16123649;19;129966;-67
2022/09/14 14:14:32;;;;;;;61.50;33.25;;;;;;;21.94;46.27;100401.91;16136892;19;130839;-67
2022/09/14 14:19:56;;;;;;;52.42;28.13;;;;;;;21.94;45.83;100418.63;16141012;19;129469;-67
2022/09/14 14:25:19;;;;;;;39.75;23.13;;;;;;;21.94;45.83;100418.63;16144955;19;129900;-66
2022/09/14 14:30:42;;;;;;;40.88;20.35;;;;;;;21.94;46.24;100422.25;16138551;19;129423;-67
2022/09/14 14:36:08;;;;;;;42.67;21.52;;;;;;;21.94;46.05;100402.75;16134967;19;129549;-67
2022/09/14 14:41:30;;;;;;;40.97;20.85;;;;;;;21.94;45.66;100390.75;16134365;19;129821;-66
2022/09/14 14:46:52;;;;;;;57.40;26.33;;;;;;;21.92;45.66;100391.06;16135135;19;128850;-66
2022/09/14 14:52:13;;;;;;;88.78;43.90;;;;;;;21.93;45.87;100373.22;16134288;19;129231;-66
2022/09/14 14:57:37;;;;;;;101.05;55.13;;;;;;;21.95;45.86;100375.72;16135692;19;129322;-66
2022/09/14 15:02:59;;;;;;;121.93;68.50;;;;;;;21.96;45.77;100388.53;16133883;19;130174;-67
2022/09/14 15:08:21;;;;;;;105.40;56.63;;;;;;;21.95;45.69;100375.72;16138282;19;131105;-67
2022/09/14 15:13:44;;;;;;;93.63;53.10;;;;;;;21.95;45.65;100403.56;16134276;19;129279;-67
2022/09/14 15:19:05;;;;;;;71.13;40.80;;;;;;;21.94;45.46;100405.53;16136550;19;129225;-68
2022/09/14 15:24:28;;;;;;;55.35;31.52;;;;;;;21.94;45.16;100419.47;16132586;19;130819;-68
2022/09/14 15:29:49;;;;;;;53.60;31.33;;;;;;;21.92;45.34;100418.06;16133211;19;129521;-69
2022/09/14 15:35:13;;;;;;;71.25;25.20;;;;;;;21.89;45.25;100425.03;16133465;19;129560;-68
2022/09/14 15:40:34;;;;;;;45.53;23.88;;;;;;;21.89;45.45;100435.34;16132329;19;129410;-69
2022/09/14 15:46:02;;;;;;;41.10;20.60;;;;;;;21.89;45.83;100427.81;16133475;19;132426;-69
2022/09/14 15:51:24;;;;;;;35.22;16.85;;;;;;;21.89;45.95;100432.56;16132728;19;130198;-69
2022/09/14 15:56:51;;;;;;;34.17;16.38;;;;;;;21.90;45.97;100445.38;16134992;19;129976;-69
2022/09/14 16:02:13;;;;;;;33.90;14.93;;;;;;;21.89;46.21;100447.31;16132408;19;129700;-69
2022/09/14 16:07:35;;;;;;;29.52;14.40;;;;;;;21.88;46.61;100464.31;16134303;19;129326;-69
2022/09/14 16:12:56;;;;;;;28.48;13.65;;;;;;;21.88;46.82;100447.59;16133435;19;132151;-69
2022/09/14 16:18:18;;;;;;;28.77;13.40;;;;;;;21.87;47.01;100457.06;16129945;19;130661;-69
2022/09/14 16:23:46;;;;;;;29.50;12.73;;;;;;;21.88;47.31;100461.53;16133467;19;129877;-69
2022/09/14 16:29:11;;;;;;;28.33;11.85;;;;;;;21.87;47.04;100465.44;16136078;19;129284;-69
2022/09/14 16:34:33;;;;;;;22.17;9.93;;;;;;;21.85;47.40;100464.88;16132977;19;129504;-69
2022/09/14 16:39:54;;;;;;;21.67;9.82;;;;;;;21.85;47.25;100453.72;16131432;19;129634;-69
2022/09/14 16:45:16;;;;;;;25.80;9.18;;;;;;;21.84;47.57;100455.69;16135097;19;131391;-69
2022/09/14 16:50:38;;;;;;;24.45;9.32;;;;;;;21.81;47.56;100437.56;16132434;19;129481;-69
2022/09/14 16:56:11;;;;;;;27.10;9.13;;;;;;;21.82;47.40;100439.25;16130666;19;129590;-69
2022/09/14 17:01:38;;;;;;;21.40;8.10;;;;;;;21.80;47.61;100443.44;16128252;19;129515;-69
2022/09/14 17:07:00;;;;;;;18.23;7.28;;;;;;;21.79;47.12;100458.47;16132473;19;129098;-69
2022/09/14 17:12:22;;;;;;;22.52;7.60;;;;;;;21.77;47.38;100458.75;16130104;19;131857;-69
2022/09/14 17:17:43;;;;;;;16.50;7.38;;;;;;;21.76;47.73;100473.78;16128809;19;129681;-69
2022/09/14 17:23:05;;;;;;;16.65;6.72;;;;;;;21.75;47.74;100474.03;16129856;19;129262;-68
2022/09/14 17:28:27;;;;;;;11.70;5.90;;;;;;;21.75;47.69;100468.47;16127754;19;129075;-68
2022/09/14 17:33:52;;;;;;;18.35;6.70;;;;;;;21.75;47.42;100474.91;16126532;19;129297;-68
2022/09/14 17:39:14;;;;;;;16.80;6.40;;;;;;;21.75;47.72;100487.97;16126330;19;129364;-69
2022/09/14 17:44:36;;;;;;;18.48;6.20;;;;;;;21.74;47.58;100498.28;16122846;19;130496;-68
2022/09/14 17:49:57;;;;;;;16.85;5.72;;;;;;;21.74;47.77;100503.84;16139418;19;130357;-69
2022/09/14 17:55:19;;;;;;;13.30;5.22;;;;;;;21.73;47.75;100491.03;16141229;19;129193;-68
2022/09/14 18:00:42;;;;;;;14.00;5.15;;;;;;;21.73;47.78;100502.19;16143572;19;132347;-68
2022/09/14 18:06:06;;;;;;;15.02;5.40;;;;;;;21.72;47.97;100500.50;16141600;19;129444;-68
2022/09/14 18:11:28;;;;;;;16.27;5.60;;;;;;;21.72;47.87;100496.91;16141569;19;129420;-68
2022/09/14 18:16:50;;;;;;;12.48;5.30;;;;;;;21.70;47.68;100491.59;16139463;19;130292;-69
2022/09/14 18:22:14;;;;;;;14.88;4.60;;;;;;;21.71;47.65;100498.00;16137040;19;129934;-68
2022/09/14 18:27:36;;;;;;;11.98;4.90;;;;;;;21.71;48.00;100492.44;16139365;19;129661;-68
2022/09/14 18:32:57;;;;;;;14.00;5.57;;;;;;;21.70;48.14;100502.72;16139796;19;129147;-68
2022/09/14 18:38:19;;;;;;;18.48;4.70;;;;;;;21.68;47.93;100518.88;16138942;19;129471;-68
2022/09/14 18:43:43;;;;;;;21.35;4.60;;;;;;;21.67;48.48;100525.53;16141634;19;130048;-67
2022/09/14 18:49:05;;;;;;;7.82;3.83;;;;;;;21.66;48.50;100521.13;16138817;19;129534;-67
2022/09/14 18:54:26;;;;;;;13.70;4.10;;;;;;;21.65;48.45;100517.47;16137824;19;130199;-68
2022/09/14 18:59:48;;;;;;;17.35;4.00;;;;;;;21.63;48.58;100514.13;16137119;19;129595;-66
2022/09/14 19:05:11;;;;;;;13.90;3.70;;;;;;;21.65;48.61;100516.66;16138461;19;129770;-66
2022/09/14 19:10:36;;;;;;;17.25;3.80;;;;;;;21.69;48.61;100512.19;16136503;19;129412;-66
2022/09/14 19:15:58;;;;;;;26.60;4.15;;;;;;;21.70;48.59;100518.59;16139418;19;129632;-65
2022/09/14 19:21:24;;;;;;;14.32;3.30;;;;;;;21.73;48.55;100524.44;16135891;19;129476;-66
2022/09/14 19:26:49;;;;;;;20.88;4.47;;;;;;;21.73;48.63;100532.81;16135391;19;129713;-65
2022/09/14 19:32:11;;;;;;;13.57;3.47;;;;;;;21.76;48.81;100536.97;16131813;19;130764;-65
2022/09/14 19:37:32;;;;;;;14.57;3.13;;;;;;;21.77;48.96;100542.28;16132768;19;129762;-66
2022/09/14 19:42:54;;;;;;;15.98;3.70;;;;;;;21.78;48.70;100549.53;16134463;19;129866;-64
2022/09/14 19:48:16;;;;;;;11.15;2.95;;;;;;;21.78;48.46;100555.09;16134817;19;130333;-64
2022/09/14 19:53:38;;;;;;;19.38;3.80;;;;;;;21.80;48.93;100561.19;16133224;19;129769;-64
2022/09/14 19:59:02;;;;;;;14.60;3.00;;;;;;;21.81;48.68;100560.09;16134907;19;129916;-65
2022/09/14 20:04:24;;;;;;;10.70;2.95;;;;;;;21.81;48.52;100570.41;16131818;19;130058;-64
2022/09/14 20:09:45;;;;;;;15.32;3.20;;;;;;;21.80;48.52;100577.09;16131562;19;130668;-66
2022/09/14 20:15:07;;;;;;;14.52;3.00;;;;;;;21.80;48.30;100575.13;16129569;19;131039;-65
2022/09/14 20:20:29;;;;;;;15.63;3.30;;;;;;;21.79;48.22;100584.59;16120355;19;131846;-65
2022/09/14 20:25:51;;;;;;;10.82;2.63;;;;;;;21.81;48.51;100587.13;16128977;19;129898;-66
2022/09/14 20:31:13;;;;;;;13.55;2.40;;;;;;;21.84;48.30;100586.56;16126608;19;130935;-62
2022/09/14 20:36:35;;;;;;;23.40;3.60;;;;;;;21.85;48.49;100592.97;16128868;19;130402;-64
2022/09/14 20:41:56;;;;;;;19.23;2.88;;;;;;;21.85;48.68;100593.78;16131840;19;133259;-63
2022/09/14 20:47:18;;;;;;;22.33;4.20;;;;;;;21.88;49.05;100609.13;16126503;19;130098;-64
2022/09/14 20:52:40;;;;;;;17.88;2.92;;;;;;;21.85;48.86;100604.09;16130428;19;129334;-64
2022/09/14 20:58:01;;;;;;;12.50;3.05;;;;;;;21.82;49.05;100614.66;16127319;19;130626;-64
2022/09/14 21:03:23;;;;;;;17.35;3.05;;;;;;;21.80;48.69;100614.09;16126822;19;129733;-64
2022/09/14 21:08:45;;;;;;;16.35;2.88;;;;;;;21.79;48.31;100611.59;16126091;19;129721;-70
2022/09/14 21:14:07;;;;;;;10.25;2.60;;;;;;;21.76;48.53;100615.78;16124053;19;129772;-69
2022/09/14 21:19:29;;;;;;;21.30;3.28;;;;;;;21.74;48.47;100620.78;16124453;19;129756;-68
2022/09/14 21:24:51;;;;;;;15.23;3.63;;;;;;;21.72;48.37;100620.22;16121619;19;130226;-70
2022/09/14 21:30:13;;;;;;;16.13;2.97;;;;;;;21.71;48.59;100635.25;16122986;19;129787;-64
2022/09/14 21:35:35;;;;;;;10.40;2.90;;;;;;;21.70;48.24;100622.44;16124419;19;130501;-64
2022/09/14 21:40:56;;;;;;;9.00;2.40;;;;;;;21.70;48.19;100636.38;16124001;19;131154;-64
2022/09/14 21:46:18;;;;;;;7.40;2.28;;;;;;;21.66;48.16;100630.50;16123008;19;129350;-65
2022/09/14 21:51:40;;;;;;;8.88;2.22;;;;;;;21.66;48.39;100635.25;16128690;19;130521;-64
2022/09/14 21:57:02;;;;;;;7.85;2.13;;;;;;;21.65;48.43;100645.53;16123311;19;129850;-64
2022/09/14 22:02:24;;;;;;;10.55;2.30;;;;;;;21.64;48.04;100643.03;16120652;19;130273;-64
2022/09/14 22:07:46;;;;;;;5.80;1.85;;;;;;;21.62;48.49;100645.25;16120891;19;129954;-64
2022/09/14 22:13:08;;;;;;;7.60;2.22;;;;;;;21.62;47.99;100650.81;16120559;19;129271;-64
2022/09/14 22:18:29;;;;;;;5.72;2.10;;;;;;;21.61;48.52;100654.72;16119870;19;129282;-64
2022/09/14 22:23:54;;;;;;;10.10;2.25;;;;;;;21.59;48.21;100652.22;16120200;19;129902;-64
2022/09/14 22:29:17;;;;;;;6.25;1.77;;;;;;;21.59;48.10;100656.94;16117956;19;133397;-63
2022/09/14 22:34:40;;;;;;;8.63;1.88;;;;;;;21.57;47.86;100659.16;16127836;19;130741;-64
2022/09/14 22:40:02;;;;;;;9.48;2.20;;;;;;;21.56;48.06;100663.03;16135166;19;129402;-64
2022/09/14 22:45:24;;;;;;;8.27;2.22;;;;;;;21.56;48.19;100665.81;16134785;19;129958;-64
2022/09/14 22:50:49;;;;;;;6.90;1.77;;;;;;;21.55;48.24;100670.56;16136364;19;129711;-64
2022/09/14 22:56:14;;;;;;;4.27;1.60;;;;;;;21.54;48.02;100676.41;16136116;19;129485;-64
2022/09/14 23:01:39;;;;;;;4.90;1.75;;;;;;;21.52;47.95;100674.75;16135199;19;132274;-64
2022/09/14 23:07:01;;;;;;;5.50;1.70;;;;;;;21.51;48.12;100670.28;16137500;19;130270;-64
2022/09/14 23:12:22;;;;;;;4.60;1.50;;;;;;;21.52;47.95;100671.09;16134605;19;129013;-64
2022/09/14 23:17:44;;;;;;;6.80;1.98;;;;;;;21.51;47.91;100661.94;16134568;19;130487;-64
2022/09/14 23:23:12;;;;;;;3.20;1.50;;;;;;;21.50;48.11;100674.16;16133824;19;129592;-64
2022/09/14 23:28:34;;;;;;;6.10;2.05;;;;;;;21.49;47.72;100686.41;16132177;19;129377;-63
2022/09/14 23:33:58;;;;;;;3.63;1.40;;;;;;;21.49;47.62;100683.63;16133050;19;132418;-64
2022/09/14 23:39:20;;;;;;;5.35;1.70;;;;;;;21.48;47.56;100687.47;16131939;19;129850;-64
2022/09/14 23:44:42;;;;;;;3.65;1.35;;;;;;;21.48;47.53;100690.25;16129075;19;129549;-64
2022/09/14 23:50:04;;;;;;;3.28;1.80;;;;;;;21.48;47.84;100694.97;16132277;19;129817;-64
2022/09/14 23:55:26;;;;;;;8.75;2.17;;;;;;;21.47;47.76;100691.38;16131699;19;129730;-64
